Elkton, FL (32033)

3:04 AM EDT on September 02, 2014 (GMT -0400)
Wildwood Pines | Change Station
CLOSE
Current Station
Personal Weather Station
Location: Saint Augustine, FL
Elevation: 30 ft
Nearby Weather Stations

Elev 30 ft 29.81 °N, 81.35 °W | Updated 4 minutes ago

Clear
Clear
72.5 °F
Feels Like 72.5 °F
N
0.0
Wind Variable Wind from SE
Gusts 0.0 mph

Today
High -- | Low -- °F
--% Chance of Precip.
Yesterday
High -- | Low -- °F
Precip. -- in
7:03 AM 7:46 PM
Waxing Crescent, 48% visible
Pressure 30.08 in
Visibility 10.0 miles
Clouds Clear
Dew Point 72 °F
Humidity 99%
Rainfall 0.00 in
Snow Depth Not available.
UV 0 out of 12
Pollen 8.10 out of 12
Ozone Good
PM2.5 Moderate
Flu Activity Not available.
METAR KSGJ 020658Z AUTO 20004KT 10SM CLR 26/24 A3008 RMK AO2 SLP186 T02560239

More Conditions Fewer Conditions

Pressure 30.08 in
Visibility 10.0 miles
Clouds Clear
Dew Point 72 °F
Humidity 99%
Rainfall 0.00 in
Snow Depth Not available.
UV 0 out of 12
Pollen 8.10 out of 12
Ozone Good
PM2.5 Moderate
Flu Activity Not available.
METAR KSGJ 020658Z AUTO 20004KT 10SM CLR 26/24 A3008 RMK AO2 SLP186 T02560239

More Conditions Fewer Conditions

10-Day Weather Forecast

Almanac

Astronomy

Sep. 02, 2014 Rise Set
Actual Time 7:03 AM EDT 7:46 PM EDT
Civil Twilight 6:39 AM EDT 8:11 PM EDT
Nautical Twilight 6:10 AM EDT 8:39 PM EDT
Astronomical Twilight 5:41 AM EDT 9:08 PM EDT
Moon 2:15 PM EDT 12:18 AM EDT
Length of Visible Light 13h 31m
Length of Day
12h 43m
Tomorrow will be 1m 43s shorter.
Waxing Crescent, 48% of the Moon is Illuminated
Today
Waxing Crescent
Sep 2
First Quarter
Sep 8
Full
Sep 15
Last Quarter
Sep 24
New

Today's Extremes

State Highs State Lows

Community

WunderPhotos

Upload Photos

1,749,589 photos uploaded!

WunderBlogs® & News

Nearby

Air Quality

  Air Quality AQ Index Pollutant
Yesterday Moderate
PM2.5
Yesterday Good
OZONE
Current Moderate
PM2.5
Current Good
OZONE
Tuesday Good
OZONE
Tuesday Good
PM2.5
Wednesday Good
OZONE
Wednesday Good
PM2.5

Snow Depth

Station Depth Elevation
No new snow has been reported.

Earthquake Activity

City Distance Mag. Time & Date
No recent earthquake activity has been reported nearby.
Minimum magnitude displayed is 2.5.

Coastal Water Temperatures

Place Temperature
Mayport (Bar Pilots Dock), FL 84.9 °F
Fernandina Beach, FL 87.1 °F
Trident Pier, FL 86.0 °F

Nearby Weather Stations